Time;durP1;ratioP1;P1;durP2;ratioP2;P2;SDS_P1;SDS_P2;PMS_P1;PMS_P2;Temp;Humidity;BMP_temperature;BMP_pressure;BME280_temperature;BME280_humidity;BME280_pressure;Samples;Min_cycle;Max_cycle;Signal;HPM_P1;HPM_P2
2023/07/03 00:01:08;;;;;;;;;;;17.00;99.90;;;;;;5003484;28;19936;-76
2023/07/03 00:03:39;;;;;;;;;;;17.00;99.90;;;;;;5017793;28;20362;-73
2023/07/03 00:06:05;;;;;;;;;;;17.00;99.90;;;;;;5012215;28;19924;-74
2023/07/03 00:08:46;;;;;;;;;;;17.00;99.90;;;;;;5029288;28;19928;-74
2023/07/03 00:11:15;;;;;;;;;;;17.00;99.90;;;;;;5014277;28;21791;-75
2023/07/03 00:13:44;;;;;;;;;;;16.90;99.90;;;;;;5017463;28;20004;-74
2023/07/03 00:16:19;;;;;;;;;;;16.90;99.90;;;;;;5016777;28;19991;-73
2023/07/03 00:18:53;;;;;;;;;;;16.90;99.90;;;;;;5002167;28;19924;-74
2023/07/03 00:21:19;;;;;;;;;;;16.90;99.90;;;;;;5000917;28;19924;-74
2023/07/03 00:23:56;;;;;;;;;;;16.90;99.90;;;;;;5046711;28;20387;-75
2023/07/03 00:26:35;;;;;;;;;;;17.00;99.90;;;;;;5003691;28;19935;-72
2023/07/03 00:29:10;;;;;;;;;;;17.00;99.90;;;;;;5033224;28;20332;-73
2023/07/03 00:31:37;;;;;;;;;;;16.90;99.90;;;;;;5020604;28;19925;-75
2023/07/03 00:34:09;;;;;;;;;;;16.90;99.90;;;;;;5005951;28;19943;-73
2023/07/03 00:36:45;;;;;;;;;;;16.90;99.90;;;;;;5015168;28;20612;-74
2023/07/03 00:39:14;;;;;;;;;;;16.90;99.90;;;;;;5047847;28;20654;-73
2023/07/03 00:42:13;;;;;;;;;;;17.20;99.90;;;;;;5020293;28;20000;-73
2023/07/03 00:44:51;;;;;;;;;;;16.80;99.90;;;;;;4978410;28;19960;-73
2023/07/03 00:47:32;;;;;;;;;;;16.80;99.90;;;;;;4958421;28;20072;-72
2023/07/03 00:50:14;;;;;;;;;;;16.70;99.90;;;;;;4961478;28;20304;-73
2023/07/03 00:53:02;;;;;;;;;;;16.70;99.90;;;;;;4976221;28;19933;-72
2023/07/03 00:55:33;;;;;;;;;;;16.70;99.90;;;;;;4974432;28;19932;-72
2023/07/03 00:58:22;;;;;;;;;;;16.60;99.90;;;;;;4972799;28;19934;-73
2023/07/03 01:00:58;;;;;;;;;;;16.60;99.90;;;;;;4938943;28;20013;-74
2023/07/03 01:03:53;;;;;;;;;;;16.60;99.90;;;;;;4989107;28;19996;-72
2023/07/03 01:06:28;;;;;;;;;;;16.50;99.90;;;;;;4972325;28;20455;-76
2023/07/03 01:08:58;;;;;;;;;;;16.50;99.90;;;;;;4974718;28;19936;-75
2023/07/03 01:11:39;;;;;;;;;;;16.50;99.90;;;;;;4971940;28;20024;-75
2023/07/03 01:14:22;;;;;;;;;;;16.50;99.90;;;;;;4958737;28;19937;-74
2023/07/03 01:16:56;;;;;;;;;;;16.50;99.90;;;;;;5042219;28;19932;-72
2023/07/03 01:19:32;;;;;;;;;;;16.40;99.90;;;;;;5019224;28;19969;-74
2023/07/03 01:22:13;;;;;;;;;;;17.50;99.90;;;;;;5043673;28;19931;-74
2023/07/03 01:24:59;;;;;;;;;;;16.40;99.90;;;;;;5030919;28;19935;-74
2023/07/03 01:27:46;;;;;;;;;;;16.40;99.90;;;;;;4997880;28;19987;-73
2023/07/03 01:30:40;;;;;;;;;;;16.40;99.90;;;;;;4974228;28;19928;-72
2023/07/03 01:33:19;;;;;;;;;;;16.40;99.90;;;;;;4974484;28;19968;-74
2023/07/03 01:35:48;;;;;;;;;;;16.30;99.90;;;;;;4970418;28;19921;-74
2023/07/03 01:38:23;;;;;;;;;;;16.30;99.90;;;;;;5002622;28;19997;-73
2023/07/03 01:41:06;;;;;;;;;;;16.30;99.90;;;;;;4979087;28;20036;-73
2023/07/03 01:43:33;;;;;;;;;;;16.20;99.90;;;;;;5001973;28;19980;-73
2023/07/03 01:46:05;;;;;;;;;;;16.20;99.90;;;;;;4973851;28;19925;-74
2023/07/03 01:48:41;;;;;;;;;;;16.20;99.90;;;;;;4987138;28;20534;-74
2023/07/03 01:51:15;;;;;;;;;;;16.20;99.90;;;;;;4976336;28;20065;-74
2023/07/03 01:54:19;;;;;;;;;;;16.20;99.90;;;;;;4956903;28;20024;-76
2023/07/03 01:56:53;;;;;;;;;;;16.20;99.90;;;;;;4973803;28;19939;-72
2023/07/03 01:59:31;;;;;;;;;;;16.10;99.90;;;;;;5005469;28;20105;-72
2023/07/03 02:02:12;;;;;;;;;;;16.10;99.90;;;;;;5023597;28;19932;-73
2023/07/03 02:05:07;;;;;;;;;;;15.20;99.90;;;;;;5012485;28;20407;-73
2023/07/03 02:07:33;;;;;;;;;;;16.00;99.90;;;;;;4993605;28;20261;-73
2023/07/03 02:10:10;;;;;;;;;;;16.00;99.90;;;;;;5004731;28;19952;-74
2023/07/03 02:13:01;;;;;;;;;;;16.00;99.90;;;;;;4995455;28;19933;-73
2023/07/03 02:15:33;;;;;;;;;;;16.00;99.90;;;;;;4980272;28;19975;-72
2023/07/03 02:18:01;;;;;;;;;;;16.00;99.90;;;;;;4989742;28;19932;-72
2023/07/03 02:20:36;;;;;;;;;;;16.00;99.90;;;;;;4989217;28;19937;-73
2023/07/03 02:23:09;;;;;;;;;;;15.90;99.90;;;;;;4975036;28;20034;-73
2023/07/03 02:25:37;;;;;;;;;;;15.90;99.90;;;;;;4960506;28;20016;-76
2023/07/03 02:28:12;;;;;;;;;;;15.90;99.90;;;;;;4950172;28;19932;-72
2023/07/03 02:30:38;;;;;;;;;;;15.90;99.90;;;;;;4963968;28;19921;-73
2023/07/03 02:33:11;;;;;;;;;;;15.90;99.90;;;;;;4962222;28;19986;-75
2023/07/03 02:35:41;;;;;;;;;;;15.90;99.90;;;;;;4997062;28;19925;-73
2023/07/03 02:41:07;;;;;;;;;;;15.90;99.90;;;;;;5011825;28;19932;-73
2023/07/03 02:43:49;;;;;;;;;;;15.80;99.90;;;;;;4980712;28;19929;-74
2023/07/03 02:46:15;;;;;;;;;;;15.80;99.90;;;;;;4978113;28;19922;-74
2023/07/03 02:48:54;;;;;;;;;;;15.80;99.90;;;;;;5000333;28;19929;-74
2023/07/03 02:51:20;;;;;;;;;;;15.80;99.90;;;;;;5048327;28;20063;-72
2023/07/03 02:53:55;;;;;;;;;;;15.80;99.90;;;;;;5048610;28;19983;-70
2023/07/03 02:56:30;;;;;;;;;;;15.80;99.90;;;;;;4956789;28;20015;-72
2023/07/03 02:59:18;;;;;;;;;;;15.80;99.90;;;;;;4962333;28;19959;-71
2023/07/03 03:02:17;;;;;;;;;;;15.80;99.90;;;;;;4945152;28;19921;-72
2023/07/03 03:05:13;;;;;;;;;;;15.70;99.90;;;;;;4920933;28;19923;-73
2023/07/03 03:08:15;;;;;;;;;;;15.70;99.90;;;;;;4884475;29;20067;-73
2023/07/03 03:10:51;;;;;;;;;;;15.70;99.90;;;;;;4899142;29;19934;-71
2023/07/03 03:13:21;;;;;;;;;;;15.70;99.90;;;;;;4917320;29;19931;-75
2023/07/03 03:15:50;;;;;;;;;;;15.70;99.90;;;;;;4899280;29;19962;-72
2023/07/03 03:18:24;;;;;;;;;;;15.70;99.90;;;;;;4891728;29;19962;-75
2023/07/03 03:20:56;;;;;;;;;;;15.60;99.90;;;;;;4894914;29;20631;-71
2023/07/03 03:23:26;;;;;;;;;;;15.60;99.90;;;;;;4880944;29;19964;-73
2023/07/03 03:25:53;;;;;;;;;;;15.60;99.90;;;;;;4881270;29;19938;-76
2023/07/03 03:28:36;;;;;;;;;;;15.60;99.90;;;;;;4878371;29;20014;-74
2023/07/03 03:31:06;;;;;;;;;;;15.60;99.90;;;;;;4849542;29;19928;-72
2023/07/03 03:33:47;;;;;;;;;;;15.60;99.90;;;;;;4864110;29;19927;-72
2023/07/03 03:36:12;;;;;;;;;;;15.60;99.90;;;;;;4848223;29;19987;-74
2023/07/03 03:38:40;;;;;;;;;;;15.60;99.90;;;;;;4903689;29;19995;-74
2023/07/03 03:41:09;;;;;;;;;;;15.50;99.90;;;;;;4915663;28;19927;-74
2023/07/03 03:43:49;;;;;;;;;;;15.60;99.90;;;;;;4900708;29;19934;-76
2023/07/03 03:46:18;;;;;;;;;;;15.60;99.90;;;;;;4919634;29;19927;-73
2023/07/03 03:48:50;;;;;;;;;;;15.60;99.90;;;;;;4885769;29;20338;-73
2023/07/03 03:51:48;;;;;;;;;;;15.60;99.90;;;;;;4899387;29;19926;-73
2023/07/03 03:54:39;;;;;;;;;;;15.60;99.90;;;;;;4900201;29;19930;-73
2023/07/03 03:57:48;;;;;;;;;;;15.60;99.90;;;;;;4868770;29;20079;-77
2023/07/03 04:03:52;;;;;;;;;;;15.20;99.90;;;;;;4970411;28;20285;-75
2023/07/03 04:06:29;;;;;;;;;;;15.70;99.90;;;;;;4957523;28;20285;-76
2023/07/03 04:09:21;;;;;;;;;;;15.70;99.90;;;;;;4989994;28;20281;-75
2023/07/03 04:12:23;;;;;;;;;;;15.70;99.90;;;;;;4974553;28;19932;-74
2023/07/03 04:15:16;;;;;;;;;;;15.80;99.90;;;;;;4973685;28;20889;-76
2023/07/03 04:18:07;;;;;;;;;;;15.80;99.90;;;;;;4975048;28;20120;-78
2023/07/03 04:20:56;;;;;;;;;;;15.90;99.90;;;;;;4982236;28;19926;-73
2023/07/03 04:23:45;;;;;;;;;;;15.90;99.90;;;;;;4975841;28;19954;-74
2023/07/03 04:26:49;;;;;;;;;;;15.90;99.90;;;;;;4972298;28;19984;-75
2023/07/03 04:29:38;;;;;;;;;;;15.90;99.90;;;;;;5031953;28;19924;-74
2023/07/03 04:32:27;;;;;;;;;;;15.80;99.90;;;;;;4997401;28;19924;-73
2023/07/03 04:35:41;;;;;;;;;;;15.80;99.90;;;;;;5028059;28;20447;-73
2023/07/03 04:39:07;;;;;;;;;;;16.20;99.90;;;;;;5018116;28;19925;-73
2023/07/03 04:42:13;;;;;;;;;;;15.80;99.90;;;;;;5032084;28;19927;-74
2023/07/03 04:45:00;;;;;;;;;;;15.20;99.90;;;;;;5031110;28;19975;-77
2023/07/03 04:47:40;;;;;;;;;;;16.00;99.90;;;;;;5029653;28;20178;-73
2023/07/03 04:50:35;;;;;;;;;;;15.80;99.90;;;;;;5028133;28;19932;-73
2023/07/03 04:53:41;;;;;;;;;;;15.80;99.90;;;;;;5027245;28;19925;-73
2023/07/03 04:56:36;;;;;;;;;;;15.90;99.90;;;;;;5017309;28;19927;-74
2023/07/03 04:59:20;;;;;;;;;;;16.00;99.90;;;;;;4978805;28;19932;-73
2023/07/03 05:01:46;;;;;;;;;;;16.00;99.90;;;;;;5029266;28;19929;-74
2023/07/03 05:07:39;;;;;;;;;;;16.00;99.90;;;;;;5030611;28;19928;-73
2023/07/03 05:10:31;;;;;;;;;;;16.10;99.90;;;;;;5000476;28;19936;-75
2023/07/03 05:13:47;;;;;;;;;;;15.40;99.90;;;;;;5033217;28;20672;-73
2023/07/03 05:16:19;;;;;;;;;;;16.30;99.90;;;;;;5018115;28;19933;-72
2023/07/03 05:19:15;;;;;;;;;;;16.30;99.90;;;;;;4996979;28;19932;-76
2023/07/03 05:21:45;;;;;;;;;;;16.20;99.90;;;;;;5008335;28;19933;-74
2023/07/03 05:24:28;;;;;;;;;;;16.10;99.90;;;;;;4992493;28;20407;-75
2023/07/03 05:26:56;;;;;;;;;;;16.00;99.90;;;;;;4978474;28;19929;-72
2023/07/03 05:32:56;;;;;;;;;;;15.80;99.90;;;;;;5010265;28;19937;-75
2023/07/03 05:35:22;;;;;;;;;;;15.80;99.90;;;;;;4991841;28;20150;-72
2023/07/03 05:38:04;;;;;;;;;;;15.80;99.90;;;;;;4995745;28;19928;-78
2023/07/03 05:40:39;;;;;;;;;;;15.80;99.90;;;;;;4994832;28;19932;-72
2023/07/03 05:43:19;;;;;;;;;;;15.80;99.90;;;;;;5008889;28;19933;-76
2023/07/03 05:46:21;;;;;;;;;;;15.80;99.90;;;;;;4991341;28;19975;-72
2023/07/03 05:48:58;;;;;;;;;;;15.90;99.90;;;;;;4991047;28;19928;-74
2023/07/03 05:51:51;;;;;;;;;;;15.80;99.90;;;;;;5007058;28;19966;-72
2023/07/03 05:54:44;;;;;;;;;;;15.90;99.90;;;;;;5025854;28;19947;-73
2023/07/03 06:00:33;;;;;;;;;;;15.90;99.90;;;;;;5028771;28;20479;-74
2023/07/03 06:03:02;;;;;;;;;;;16.00;99.90;;;;;;5017244;28;19920;-74
2023/07/03 06:05:47;;;;;;;;;;;16.10;99.90;;;;;;5019082;28;19930;-73
2023/07/03 06:08:21;;;;;;;;;;;16.10;99.90;;;;;;5013210;28;19924;-74
2023/07/03 06:11:09;;;;;;;;;;;16.20;99.90;;;;;;5016276;28;20345;-73
2023/07/03 06:13:47;;;;;;;;;;;16.20;99.90;;;;;;5032164;28;19920;-71
2023/07/03 06:16:12;;;;;;;;;;;16.30;99.90;;;;;;5002168;28;20271;-71
2023/07/03 06:18:38;;;;;;;;;;;16.30;99.90;;;;;;5018309;28;19921;-74
2023/07/03 06:21:16;;;;;;;;;;;16.30;99.90;;;;;;5013609;28;20025;-72
2023/07/03 06:24:12;;;;;;;;;;;16.30;99.90;;;;;;5015528;28;19929;-78
2023/07/03 06:27:29;;;;;;;;;;;16.40;99.90;;;;;;5029448;28;20063;-76
2023/07/03 06:29:56;;;;;;;;;;;16.40;99.90;;;;;;5019452;28;19951;-72
2023/07/03 06:32:38;;;;;;;;;;;16.10;99.90;;;;;;5030976;28;19932;-73
2023/07/03 06:35:25;;;;;;;;;;;16.50;99.90;;;;;;4982501;28;20515;-75
2023/07/03 06:37:58;;;;;;;;;;;16.60;99.90;;;;;;5033381;28;19987;-75
2023/07/03 06:40:44;;;;;;;;;;;16.70;99.90;;;;;;4983715;28;20628;-74
2023/07/03 06:43:13;;;;;;;;;;;16.70;99.90;;;;;;5007640;28;19968;-72
2023/07/03 06:46:16;;;;;;;;;;;16.80;99.90;;;;;;5006948;28;20404;-72
2023/07/03 06:48:55;;;;;;;;;;;16.80;99.90;;;;;;4989077;28;19933;-74
2023/07/03 06:51:27;;;;;;;;;;;16.80;99.90;;;;;;4987290;28;19937;-75
2023/07/03 06:54:00;;;;;;;;;;;16.90;99.90;;;;;;4989635;28;19921;-72
2023/07/03 06:57:12;;;;;;;;;;;17.00;99.90;;;;;;4995145;28;19923;-74
2023/07/03 06:59:50;;;;;;;;;;;17.20;99.90;;;;;;4991598;28;19932;-72
2023/07/03 07:05:37;;;;;;;;;;;17.10;99.90;;;;;;4993679;28;19929;-74
2023/07/03 07:08:37;;;;;;;;;;;17.30;99.90;;;;;;4993562;28;20669;-73
2023/07/03 07:11:09;;;;;;;;;;;17.20;99.90;;;;;;4968908;28;20004;-75
2023/07/03 07:13:44;;;;;;;;;;;17.20;99.90;;;;;;5032996;28;19928;-72
2023/07/03 07:16:13;;;;;;;;;;;17.00;99.90;;;;;;5017260;28;19921;-72
2023/07/03 07:18:44;;;;;;;;;;;17.70;99.90;;;;;;5034592;28;19925;-71
2023/07/03 07:21:10;;;;;;;;;;;17.40;99.90;;;;;;5003182;28;19963;-74
2023/07/03 07:23:36;;;;;;;;;;;17.40;99.90;;;;;;5033846;28;20011;-76
2023/07/03 07:26:02;;;;;;;;;;;17.50;99.90;;;;;;5017650;28;19920;-71
2023/07/03 07:28:28;;;;;;;;;;;17.60;99.90;;;;;;5019312;28;20215;-71
2023/07/03 07:30:54;;;;;;;;;;;17.70;99.90;;;;;;5023313;28;19927;-71
2023/07/03 07:33:20;;;;;;;;;;;17.70;99.90;;;;;;5004627;28;19929;-71
2023/07/03 07:36:07;;;;;;;;;;;17.90;99.90;;;;;;5025046;28;19932;-76
2023/07/03 07:38:42;;;;;;;;;;;18.10;99.90;;;;;;5035096;28;19978;-76
2023/07/03 07:41:08;;;;;;;;;;;18.20;99.90;;;;;;5036077;28;19933;-78
2023/07/03 07:43:33;;;;;;;;;;;18.10;99.90;;;;;;5004852;28;20362;-74
2023/07/03 07:45:59;;;;;;;;;;;18.20;99.90;;;;;;5021972;28;19920;-75
2023/07/03 07:48:28;;;;;;;;;;;18.30;99.90;;;;;;5019196;28;19925;-74
2023/07/03 07:50:55;;;;;;;;;;;18.50;99.90;;;;;;5022661;28;19928;-74
2023/07/03 07:53:26;;;;;;;;;;;18.60;99.90;;;;;;5037675;28;19928;-74
2023/07/03 07:55:52;;;;;;;;;;;18.70;99.90;;;;;;5023487;28;20240;-76
2023/07/03 07:58:17;;;;;;;;;;;18.80;99.90;;;;;;5022664;28;19925;-75
2023/07/03 08:00:43;;;;;;;;;;;18.70;99.90;;;;;;5019994;28;19924;-74
2023/07/03 08:03:09;;;;;;;;;;;18.60;99.90;;;;;;5020456;28;19933;-74
2023/07/03 08:05:38;;;;;;;;;;;18.40;99.90;;;;;;5025639;28;19994;-73
2023/07/03 08:08:04;;;;;;;;;;;18.50;99.90;;;;;;4986743;28;19939;-74
2023/07/03 08:10:31;;;;;;;;;;;18.50;99.90;;;;;;5024252;28;19925;-77
2023/07/03 08:12:57;;;;;;;;;;;18.40;99.90;;;;;;5019784;28;19928;-75
2023/07/03 08:15:23;;;;;;;;;;;18.40;99.90;;;;;;5004497;28;19924;-75
2023/07/03 08:17:48;;;;;;;;;;;18.20;99.90;;;;;;5020303;28;20317;-76
2023/07/03 08:20:14;;;;;;;;;;;18.20;99.90;;;;;;5035459;28;20012;-76
2023/07/03 08:22:41;;;;;;;;;;;18.40;99.90;;;;;;5019929;28;19928;-76
2023/07/03 08:25:07;;;;;;;;;;;18.70;99.90;;;;;;5020753;28;19940;-75
2023/07/03 08:27:33;;;;;;;;;;;18.90;99.90;;;;;;5020405;28;19920;-74
2023/07/03 08:29:59;;;;;;;;;;;18.90;99.90;;;;;;5019853;28;19920;-74
2023/07/03 08:32:34;;;;;;;;;;;19.00;99.90;;;;;;5037943;28;20275;-75
2023/07/03 08:35:00;;;;;;;;;;;18.80;99.90;;;;;;5025041;28;19925;-76
2023/07/03 08:37:26;;;;;;;;;;;18.70;99.90;;;;;;5008176;28;19935;-74
2023/07/03 08:39:52;;;;;;;;;;;18.60;99.90;;;;;;5037690;28;20255;-77
2023/07/03 08:42:30;;;;;;;;;;;18.60;99.90;;;;;;5025897;28;19936;-75
2023/07/03 08:44:58;;;;;;;;;;;19.10;99.90;;;;;;5037013;28;19928;-77
2023/07/03 08:47:29;;;;;;;;;;;19.20;99.90;;;;;;5036433;28;20387;-75
2023/07/03 08:50:16;;;;;;;;;;;19.40;99.90;;;;;;5023109;28;19967;-76
2023/07/03 08:52:48;;;;;;;;;;;19.40;99.90;;;;;;5020116;28;19932;-76
2023/07/03 08:55:18;;;;;;;;;;;19.40;99.90;;;;;;5018090;28;19920;-77
2023/07/03 08:57:44;;;;;;;;;;;19.40;99.90;;;;;;5020585;28;19928;-76
2023/07/03 09:00:11;;;;;;;;;;;19.40;99.90;;;;;;5003470;28;19925;-75
2023/07/03 09:02:59;;;;;;;;;;;19.30;99.90;;;;;;5021714;28;19928;-75
2023/07/03 09:05:35;;;;;;;;;;;19.10;99.90;;;;;;5037636;28;19921;-74
2023/07/03 09:08:03;;;;;;;;;;;19.10;99.90;;;;;;5025311;28;20762;-74
2023/07/03 09:10:34;;;;;;;;;;;19.30;99.90;;;;;;5017954;28;19931;-74
2023/07/03 09:13:00;;;;;;;;;;;19.50;99.90;;;;;;5036673;28;20052;-73
2023/07/03 09:15:29;;;;;;;;;;;19.60;99.90;;;;;;5024535;28;19931;-70
2023/07/03 09:18:08;;;;;;;;;;;19.50;99.90;;;;;;5020474;28;19972;-69
2023/07/03 09:20:38;;;;;;;;;;;19.50;99.90;;;;;;5038221;28;20387;-70
2023/07/03 09:23:16;;;;;;;;;;;19.70;99.90;;;;;;5003629;28;20135;-68
2023/07/03 09:26:04;;;;;;;;;;;19.50;99.90;;;;;;5018271;28;20012;-71
2023/07/03 09:28:49;;;;;;;;;;;19.30;99.90;;;;;;5021257;28;19940;-71
2023/07/03 09:31:16;;;;;;;;;;;18.90;99.90;;;;;;5038751;28;19928;-71
2023/07/03 09:33:41;;;;;;;;;;;18.60;99.90;;;;;;5035755;28;19931;-70
2023/07/03 09:36:26;;;;;;;;;;;18.50;99.90;;;;;;5016397;28;19920;-71
2023/07/03 09:38:52;;;;;;;;;;;18.30;99.90;;;;;;5006592;28;20288;-71
2023/07/03 09:41:28;;;;;;;;;;;18.20;99.90;;;;;;4989215;28;20018;-72
2023/07/03 09:43:55;;;;;;;;;;;18.10;99.90;;;;;;5034673;28;19975;-70
2023/07/03 09:46:22;;;;;;;;;;;18.20;99.90;;;;;;5019957;28;19925;-70
2023/07/03 09:48:50;;;;;;;;;;;18.20;99.90;;;;;;5004163;28;19933;-70
2023/07/03 09:51:27;;;;;;;;;;;18.10;99.90;;;;;;5007916;28;20014;-72
2023/07/03 09:53:56;;;;;;;;;;;18.10;99.90;;;;;;5015639;28;19936;-70
2023/07/03 09:56:22;;;;;;;;;;;18.00;99.90;;;;;;5031687;28;19936;-70
2023/07/03 09:58:49;;;;;;;;;;;17.90;99.90;;;;;;5033935;28;20027;-69
2023/07/03 10:01:17;;;;;;;;;;;17.90;99.90;;;;;;5016307;28;19951;-70
2023/07/03 10:03:45;;;;;;;;;;;17.90;99.90;;;;;;5035424;28;20020;-69
2023/07/03 10:06:17;;;;;;;;;;;18.00;99.90;;;;;;5023138;28;19920;-69
2023/07/03 10:08:48;;;;;;;;;;;18.00;99.90;;;;;;5018851;28;19932;-69
2023/07/03 10:11:43;;;;;;;;;;;18.00;99.90;;;;;;5017264;28;19928;-69
2023/07/03 10:14:14;;;;;;;;;;;18.00;99.90;;;;;;5018515;28;20031;-70
2023/07/03 10:16:42;;;;;;;;;;;18.00;99.90;;;;;;5034976;28;20560;-73
2023/07/03 10:19:09;;;;;;;;;;;18.00;99.90;;;;;;5017488;28;19933;-69
2023/07/03 10:21:38;;;;;;;;;;;18.10;99.90;;;;;;5023904;28;19928;-69
2023/07/03 10:24:10;;;;;;;;;;;18.40;99.90;;;;;;5036092;28;19925;-69
2023/07/03 10:26:51;;;;;;;;;;;18.60;99.90;;;;;;5014774;28;19924;-69
2023/07/03 10:29:30;;;;;;;;;;;18.80;99.90;;;;;;5018217;28;19928;-69
2023/07/03 10:31:58;;;;;;;;;;;19.00;99.90;;;;;;5047569;28;19925;-69
2023/07/03 10:34:54;;;;;;;;;;;19.20;99.90;;;;;;5015323;28;20524;-70
2023/07/03 10:37:23;;;;;;;;;;;19.30;99.90;;;;;;4993339;28;19925;-71
2023/07/03 10:40:17;;;;;;;;;;;19.50;99.90;;;;;;4995203;28;19931;-68
2023/07/03 10:42:50;;;;;;;;;;;19.70;99.90;;;;;;4978592;28;20281;-69
2023/07/03 10:45:22;;;;;;;;;;;19.80;99.90;;;;;;4980813;28;20048;-69
2023/07/03 10:47:53;;;;;;;;;;;19.80;99.90;;;;;;5010928;28;19936;-71
2023/07/03 10:50:31;;;;;;;;;;;20.10;99.90;;;;;;4979009;28;20872;-73
2023/07/03 10:53:44;;;;;;;;;;;20.30;99.90;;;;;;4997664;28;19936;-72
2023/07/03 10:56:53;;;;;;;;;;;20.50;99.90;;;;;;4986851;28;19949;-72
2023/07/03 10:59:47;;;;;;;;;;;20.80;99.90;;;;;;4963026;28;20036;-74
2023/07/03 11:06:20;;;;;;;;;;;21.20;99.20;;;;;;4996844;28;19987;-72
2023/07/03 11:09:46;;;;;;;;;;;21.60;97.90;;;;;;4996821;28;19925;-72
2023/07/03 11:13:06;;;;;;;;;;;21.90;97.00;;;;;;4990705;28;20023;-75
2023/07/03 11:16:12;;;;;;;;;;;22.00;97.10;;;;;;4995259;28;20384;-71
2023/07/03 11:19:08;;;;;;;;;;;22.20;95.90;;;;;;4980599;28;19971;-75
2023/07/03 11:25:08;;;;;;;;;;;22.10;95.70;;;;;;4942614;28;20426;-73
2023/07/03 11:28:21;;;;;;;;;;;21.60;96.70;;;;;;4943137;28;19962;-73
2023/07/03 11:31:22;;;;;;;;;;;21.00;97.00;;;;;;4917039;29;20421;-75
2023/07/03 11:34:06;;;;;;;;;;;20.50;98.00;;;;;;4943274;28;20431;-75
2023/07/03 11:40:55;;;;;;;;;;;20.00;98.80;;;;;;4993575;28;19957;-74
2023/07/03 11:46:54;;;;;;;;;;;19.70;99.70;;;;;;4975221;28;19924;-74
2023/07/03 11:49:27;;;;;;;;;;;19.60;99.90;;;;;;5003712;28;20019;-74
2023/07/03 11:52:10;;;;;;;;;;;19.80;99.90;;;;;;4981833;28;20005;-74
2023/07/03 11:58:41;;;;;;;;;;;20.40;99.30;;;;;;5017515;28;19932;-75
2023/07/03 12:01:37;;;;;;;;;;;20.70;98.80;;;;;;4987749;28;19929;-74
2023/07/03 12:04:49;;;;;;;;;;;21.00;98.20;;;;;;4989856;28;19932;-74
2023/07/03 12:08:04;;;;;;;;;;;20.70;97.20;;;;;;5018027;28;19955;-77
2023/07/03 12:11:38;;;;;;;;;;;21.50;97.50;;;;;;5015847;28;19920;-75
2023/07/03 12:15:09;;;;;;;;;;;21.60;97.60;;;;;;5018227;28;20326;-75
2023/07/03 12:18:08;;;;;;;;;;;21.70;96.10;;;;;;4946706;28;19925;-73
2023/07/03 12:27:23;;;;;;;;;;;22.60;96.10;;;;;;4926705;28;19933;-74
2023/07/03 12:29:50;;;;;;;;;;;22.70;95.10;;;;;;4928476;28;19926;-71
2023/07/03 12:32:26;;;;;;;;;;;22.90;94.30;;;;;;4925443;28;19927;-73
2023/07/03 12:34:52;;;;;;;;;;;23.10;94.40;;;;;;4947552;28;20441;-72
2023/07/03 12:37:24;;;;;;;;;;;23.10;93.60;;;;;;4947138;28;19923;-71
2023/07/03 12:39:50;;;;;;;;;;;22.90;93.30;;;;;;5017564;28;19924;-73
2023/07/03 12:42:23;;;;;;;;;;;22.70;93.70;;;;;;5014367;28;19929;-73
2023/07/03 12:44:50;;;;;;;;;;;22.30;93.50;;;;;;5007159;28;19964;-73
2023/07/03 12:47:16;;;;;;;;;;;22.30;93.60;;;;;;5013680;28;20401;-74
2023/07/03 12:49:46;;;;;;;;;;;22.40;93.10;;;;;;5025398;28;19931;-72
2023/07/03 12:52:13;;;;;;;;;;;22.60;93.30;;;;;;5026216;28;19974;-73
2023/07/03 12:54:39;;;;;;;;;;;22.70;93.60;;;;;;5025869;28;19943;-75
2023/07/03 12:57:06;;;;;;;;;;;22.80;93.30;;;;;;5010610;28;20359;-73
2023/07/03 12:59:32;;;;;;;;;;;22.80;93.70;;;;;;5020115;28;19924;-74
2023/07/03 13:01:58;;;;;;;;;;;22.50;93.40;;;;;;5011356;28;19928;-74
2023/07/03 13:04:28;;;;;;;;;;;22.50;93.60;;;;;;5021435;28;20817;-72
2023/07/03 13:06:55;;;;;;;;;;;22.40;93.40;;;;;;5022781;28;20031;-74
2023/07/03 13:09:21;;;;;;;;;;;22.70;94.10;;;;;;5020318;28;20375;-73
2023/07/03 13:11:47;;;;;;;;;;;22.80;93.10;;;;;;5027390;28;20287;-73
2023/07/03 13:14:14;;;;;;;;;;;22.70;92.70;;;;;;5011299;28;19928;-73
2023/07/03 13:16:41;;;;;;;;;;;22.90;92.90;;;;;;5020321;28;19931;-73
2023/07/03 13:19:07;;;;;;;;;;;22.90;92.20;;;;;;5027855;28;19968;-72
2023/07/03 13:21:33;;;;;;;;;;;22.90;92.60;;;;;;5006544;28;19956;-73
2023/07/03 13:24:06;;;;;;;;;;;22.80;92.40;;;;;;5038216;28;20011;-74
2023/07/03 13:26:32;;;;;;;;;;;22.80;92.60;;;;;;5032816;28;19933;-76
2023/07/03 13:28:59;;;;;;;;;;;22.90;93.40;;;;;;5018795;28;19929;-75
2023/07/03 13:31:26;;;;;;;;;;;23.00;92.90;;;;;;5037411;28;20279;-76
2023/07/03 13:34:15;;;;;;;;;;;23.10;92.70;;;;;;5042302;28;19968;-77
2023/07/03 13:36:43;;;;;;;;;;;23.20;92.90;;;;;;5037592;28;19925;-75
2023/07/03 13:39:10;;;;;;;;;;;24.00;93.20;;;;;;5053594;28;19920;-76
2023/07/03 13:41:37;;;;;;;;;;;22.90;92.70;;;;;;5051518;28;19928;-77
2023/07/03 13:44:04;;;;;;;;;;;22.70;93.40;;;;;;5004977;28;19931;-76
2023/07/03 13:46:30;;;;;;;;;;;22.80;93.00;;;;;;5037268;28;19925;-75
2023/07/03 13:48:58;;;;;;;;;;;22.40;93.20;;;;;;5025628;28;19928;-76
2023/07/03 13:51:24;;;;;;;;;;;22.20;93.90;;;;;;5043618;28;20322;-75
2023/07/03 13:53:50;;;;;;;;;;;21.70;94.20;;;;;;5035687;28;20433;-75
2023/07/03 13:56:17;;;;;;;;;;;21.30;93.90;;;;;;5006793;28;20023;-75
2023/07/03 13:58:42;;;;;;;;;;;21.10;95.00;;;;;;5021154;28;19925;-75
2023/07/03 14:01:08;;;;;;;;;;;20.70;95.70;;;;;;5027379;28;19920;-75
2023/07/03 14:03:34;;;;;;;;;;;20.50;96.50;;;;;;5027110;28;19924;-69
2023/07/03 14:05:59;;;;;;;;;;;20.20;96.40;;;;;;5024649;28;20363;-69
2023/07/03 14:08:27;;;;;;;;;;;20.10;96.70;;;;;;5021697;28;21187;-70
2023/07/03 14:10:52;;;;;;;;;;;19.90;96.90;;;;;;5003993;28;20015;-70
2023/07/03 14:13:18;;;;;;;;;;;19.50;97.60;;;;;;5019924;28;19978;-71
2023/07/03 14:15:47;;;;;;;;;;;19.30;98.50;;;;;;5000940;28;21674;-82
2023/07/03 14:18:15;;;;;;;;;;;18.60;98.50;;;;;;5005609;28;20006;-73
2023/07/03 14:20:41;;;;;;;;;;;18.90;99.40;;;;;;5020890;28;20394;-70
2023/07/03 14:23:06;;;;;;;;;;;18.70;99.90;;;;;;5034659;28;20287;-70
2023/07/03 14:25:32;;;;;;;;;;;18.60;99.90;;;;;;5019426;28;20626;-74
2023/07/03 14:27:59;;;;;;;;;;;18.50;99.90;;;;;;5038741;28;19935;-71
2023/07/03 14:30:24;;;;;;;;;;;18.50;99.90;;;;;;5017206;28;19925;-70
2023/07/03 14:32:50;;;;;;;;;;;18.40;99.90;;;;;;5018880;28;19955;-69
2023/07/03 14:35:16;;;;;;;;;;;18.30;99.90;;;;;;5020743;28;20011;-72
2023/07/03 14:37:41;;;;;;;;;;;18.20;99.90;;;;;;5017576;28;19921;-71
2023/07/03 14:40:07;;;;;;;;;;;18.20;99.90;;;;;;5033300;28;20295;-71
2023/07/03 14:42:33;;;;;;;;;;;18.30;99.90;;;;;;5019509;28;19933;-72
2023/07/03 14:44:58;;;;;;;;;;;18.30;99.90;;;;;;5018300;28;19925;-69
2023/07/03 14:47:24;;;;;;;;;;;18.40;99.90;;;;;;5048534;28;19924;-69
2023/07/03 14:49:50;;;;;;;;;;;18.40;99.90;;;;;;5021417;28;19975;-70
2023/07/03 14:52:17;;;;;;;;;;;18.60;99.90;;;;;;5021825;28;19925;-70
2023/07/03 14:54:43;;;;;;;;;;;18.80;99.90;;;;;;5020499;28;20015;-70
2023/07/03 14:57:08;;;;;;;;;;;19.00;99.90;;;;;;5024814;28;20027;-69
2023/07/03 14:59:34;;;;;;;;;;;19.10;99.90;;;;;;5004082;28;19920;-69
2023/07/03 15:02:00;;;;;;;;;;;19.20;99.20;;;;;;5006554;28;20360;-71
2023/07/03 15:04:25;;;;;;;;;;;19.20;98.90;;;;;;5020471;28;20529;-71
2023/07/03 15:06:51;;;;;;;;;;;19.30;99.10;;;;;;5008438;28;20371;-72
2023/07/03 15:09:17;;;;;;;;;;;19.60;98.20;;;;;;5024774;28;19964;-70
2023/07/03 15:11:42;;;;;;;;;;;19.70;97.10;;;;;;5052756;28;20476;-69
2023/07/03 15:14:08;;;;;;;;;;;19.80;97.00;;;;;;5008517;28;20359;-69
2023/07/03 15:16:34;;;;;;;;;;;20.00;96.60;;;;;;5025035;28;20320;-71
2023/07/03 15:19:04;;;;;;;;;;;20.10;96.50;;;;;;5044652;28;19921;-70
2023/07/03 15:21:30;;;;;;;;;;;20.10;96.20;;;;;;5027631;28;20412;-70
2023/07/03 15:23:56;;;;;;;;;;;20.10;95.70;;;;;;5022448;28;19928;-72
2023/07/03 15:26:21;;;;;;;;;;;20.10;95.60;;;;;;5023365;28;19925;-72
2023/07/03 15:28:47;;;;;;;;;;;20.00;95.40;;;;;;5029195;28;19928;-70
2023/07/03 15:31:13;;;;;;;;;;;19.90;95.40;;;;;;5028209;28;20038;-70
2023/07/03 15:33:39;;;;;;;;;;;19.70;95.80;;;;;;5021489;28;19921;-69
2023/07/03 15:36:05;;;;;;;;;;;19.70;96.50;;;;;;5029183;28;19924;-69
2023/07/03 15:38:30;;;;;;;;;;;19.70;96.50;;;;;;5038802;28;20347;-69
2023/07/03 15:40:57;;;;;;;;;;;19.80;96.20;;;;;;5008844;28;19929;-69
2023/07/03 15:43:23;;;;;;;;;;;19.70;95.90;;;;;;5028318;28;19968;-70
2023/07/03 15:46:08;;;;;;;;;;;19.60;96.30;;;;;;5021236;28;19929;-70
2023/07/03 15:48:35;;;;;;;;;;;19.60;96.90;;;;;;5024263;28;19963;-67
2023/07/03 15:51:02;;;;;;;;;;;20.00;96.60;;;;;;5025102;28;19920;-69
2023/07/03 15:53:28;;;;;;;;;;;19.40;96.40;;;;;;5020378;28;20274;-69